createdAt,value
2022-09-21T00:01:09.798Z,10.00
2022-09-21T00:03:37.607Z,9.96
2022-09-21T00:06:06.014Z,10.02
2022-09-21T00:08:33.714Z,9.98
2022-09-21T00:11:01.521Z,10.18
2022-09-21T00:13:29.235Z,10.20
2022-09-21T00:15:57.009Z,10.07
2022-09-21T00:18:26.416Z,10.08
2022-09-21T00:20:53.779Z,10.23
2022-09-21T00:23:21.229Z,10.23
2022-09-21T00:25:48.590Z,10.22
2022-09-21T00:28:16.624Z,10.19
2022-09-21T00:30:43.975Z,10.25
2022-09-21T00:33:11.381Z,10.28
2022-09-21T00:35:41.263Z,10.28
2022-09-21T00:38:08.607Z,10.33
2022-09-21T00:40:35.988Z,10.26
2022-09-21T00:43:14.273Z,10.32
2022-09-21T00:45:42.858Z,10.29
2022-09-21T00:48:10.992Z,10.28
2022-09-21T00:50:43.566Z,10.22
2022-09-21T00:53:11.666Z,10.24
2022-09-21T00:55:43.371Z,10.14
2022-09-21T00:58:15.523Z,10.08
2022-09-21T01:00:43.544Z,10.20
2022-09-21T01:03:13.132Z,10.09
2022-09-21T01:05:41.807Z,10.06
2022-09-21T01:08:12.219Z,10.08
2022-09-21T01:10:51.603Z,10.09
2022-09-21T01:13:30.434Z,10.03
2022-09-21T01:16:07.308Z,9.93
2022-09-21T01:18:44.096Z,9.99
2022-09-21T01:21:20.706Z,9.96
2022-09-21T01:24:06.034Z,9.83
2022-09-21T01:26:54.122Z,9.88
2022-09-21T01:29:27.742Z,9.80
2022-09-21T01:32:03.033Z,9.77
2022-09-21T01:34:34.437Z,9.62
2022-09-21T01:37:10.310Z,9.65
2022-09-21T01:39:39.727Z,9.60
2022-09-21T01:42:08.827Z,9.41
2022-09-21T01:44:40.668Z,9.38
2022-09-21T01:47:14.011Z,9.39
2022-09-21T01:49:44.733Z,9.18
2022-09-21T01:52:16.044Z,9.02
2022-09-21T01:54:48.715Z,9.16
2022-09-21T01:57:20.025Z,9.07
2022-09-21T01:59:53.803Z,9.09
2022-09-21T02:02:25.887Z,9.05
2022-09-21T02:04:53.349Z,9.13
2022-09-21T02:07:20.978Z,9.06
2022-09-21T02:09:48.946Z,8.95
2022-09-21T02:12:19.123Z,9.00
2022-09-21T02:14:47.186Z,8.97
2022-09-21T02:17:29.525Z,9.09
2022-09-21T02:20:08.085Z,9.02
2022-09-21T02:22:41.948Z,8.89
2022-09-21T02:25:14.033Z,8.91
2022-09-21T02:27:50.387Z,8.87
2022-09-21T02:30:20.554Z,8.69
2022-09-21T02:32:57.225Z,8.52
2022-09-21T02:35:33.662Z,8.61
2022-09-21T02:38:12.165Z,8.56
2022-09-21T02:40:45.483Z,8.37
2022-09-21T02:43:20.804Z,8.57
2022-09-21T02:45:53.959Z,8.53
2022-09-21T02:48:30.327Z,8.71
2022-09-21T02:50:59.911Z,8.74
2022-09-21T02:53:31.723Z,8.61
2022-09-21T02:56:02.849Z,8.61
2022-09-21T02:58:30.902Z,8.80
2022-09-21T03:00:59.744Z,8.87
2022-09-21T03:03:28.722Z,8.88
2022-09-21T03:05:56.421Z,8.94
2022-09-21T03:08:26.536Z,8.90
2022-09-21T03:10:54.211Z,8.96
2022-09-21T03:13:21.578Z,9.13
2022-09-21T03:15:48.948Z,9.16
2022-09-21T03:18:16.590Z,9.17
2022-09-21T03:20:46.848Z,9.19
2022-09-21T03:23:14.901Z,9.26
2022-09-21T03:25:44.948Z,9.22
2022-09-21T03:28:12.542Z,9.32
2022-09-21T03:30:40.475Z,9.28
2022-09-21T03:33:08.250Z,9.29
2022-09-21T03:35:35.648Z,9.32
2022-09-21T03:38:04.367Z,9.36
2022-09-21T03:40:32.486Z,9.41
2022-09-21T03:42:59.876Z,9.43
2022-09-21T03:45:27.585Z,9.42
2022-09-21T03:47:57.539Z,9.44
2022-09-21T03:50:25.494Z,9.42
2022-09-21T03:52:52.925Z,9.39
2022-09-21T03:55:22.563Z,9.44
2022-09-21T03:57:49.927Z,9.59
2022-09-21T04:00:17.885Z,9.66
2022-09-21T04:02:45.296Z,9.57
2022-09-21T04:05:15.905Z,9.49
2022-09-21T04:07:45.696Z,9.55
2022-09-21T04:10:14.977Z,9.49
2022-09-21T04:12:44.657Z,9.47
2022-09-21T04:15:12.371Z,9.49
2022-09-21T04:17:41.049Z,9.41
2022-09-21T04:20:09.645Z,9.40
2022-09-21T04:22:42.566Z,9.33
2022-09-21T04:25:12.627Z,9.31
2022-09-21T04:27:41.012Z,9.41
2022-09-21T04:30:12.256Z,9.38
2022-09-21T04:32:39.883Z,9.21
2022-09-21T04:35:07.827Z,9.13
2022-09-21T04:37:35.185Z,9.07
2022-09-21T04:40:03.163Z,8.98
2022-09-21T04:42:30.519Z,8.96
2022-09-21T04:44:57.891Z,8.86
2022-09-21T04:47:26.618Z,8.74
2022-09-21T04:49:54.284Z,8.82
2022-09-21T04:52:21.623Z,8.85
2022-09-21T04:54:48.981Z,8.77
2022-09-21T04:57:16.379Z,8.87
2022-09-21T04:59:43.715Z,8.74
2022-09-21T05:02:11.365Z,8.78
2022-09-21T05:04:40.017Z,8.81
2022-09-21T05:07:07.388Z,8.80
2022-09-21T05:09:52.248Z,8.83
2022-09-21T05:12:19.587Z,8.93
2022-09-21T05:14:46.924Z,8.97
2022-09-21T05:17:14.544Z,9.05
2022-09-21T05:19:43.388Z,9.11
2022-09-21T05:22:10.854Z,9.21
2022-09-21T05:24:38.192Z,9.37
2022-09-21T05:27:05.981Z,9.53
2022-09-21T05:29:34.147Z,9.52
2022-09-21T05:32:07.175Z,9.61
2022-09-21T05:34:43.510Z,9.84
2022-09-21T05:37:24.978Z,9.85
2022-09-21T05:39:52.778Z,9.89
2022-09-21T05:42:20.651Z,10.03
2022-09-21T05:44:49.437Z,9.87
2022-09-21T05:47:25.294Z,10.04
2022-09-21T05:50:03.385Z,9.94
2022-09-21T05:52:40.217Z,10.06
2022-09-21T05:55:21.001Z,10.15
2022-09-21T05:57:58.142Z,10.26
2022-09-21T06:00:28.471Z,10.34
2022-09-21T06:03:17.587Z,10.34
2022-09-21T06:05:45.905Z,10.41
2022-09-21T06:08:18.785Z,10.61
2022-09-21T06:10:46.216Z,10.59
2022-09-21T06:13:13.668Z,10.60
2022-09-21T06:15:42.156Z,10.59
2022-09-21T06:18:15.486Z,10.77
2022-09-21T06:20:44.999Z,10.81
2022-09-21T06:23:15.311Z,10.75
2022-09-21T06:25:42.957Z,10.76
2022-09-21T06:28:12.284Z,10.90
2022-09-21T06:30:42.119Z,11.11
2022-09-21T06:33:10.410Z,11.23
2022-09-21T06:35:40.222Z,11.14
2022-09-21T06:38:08.827Z,11.30
2022-09-21T06:40:37.953Z,11.24
2022-09-21T06:43:06.647Z,11.23
2022-09-21T06:45:34.287Z,11.19
2022-09-21T06:48:01.911Z,11.34
2022-09-21T06:50:29.640Z,11.30
2022-09-21T06:53:00.239Z,11.38
2022-09-21T06:55:27.734Z,11.27
2022-09-21T06:58:01.174Z,11.32
2022-09-21T07:00:28.542Z,11.30
2022-09-21T07:02:55.899Z,11.56
2022-09-21T07:05:23.280Z,11.48
2022-09-21T07:07:53.699Z,11.69
2022-09-21T07:10:21.261Z,11.71
2022-09-21T07:12:49.452Z,11.87
2022-09-21T07:15:19.107Z,11.75
2022-09-21T07:17:50.323Z,11.87
2022-09-21T07:20:19.771Z,11.69
2022-09-21T07:22:47.131Z,11.98
2022-09-21T07:25:14.714Z,11.92
2022-09-21T07:27:42.389Z,11.83
2022-09-21T07:30:11.073Z,11.83
2022-09-21T07:32:39.737Z,12.11
2022-09-21T07:35:07.907Z,11.99
2022-09-21T07:37:35.309Z,12.12
2022-09-21T07:40:05.944Z,12.13
2022-09-21T07:42:33.403Z,12.20
2022-09-21T07:45:04.861Z,12.15
2022-09-21T07:47:32.685Z,12.26
2022-09-21T07:50:01.364Z,12.12
2022-09-21T07:52:28.922Z,12.26
2022-09-21T07:54:56.253Z,12.14
2022-09-21T07:57:41.261Z,12.25
2022-09-21T08:00:10.064Z,12.45
2022-09-21T08:02:37.472Z,12.77
2022-09-21T08:05:06.544Z,12.93
2022-09-21T08:07:35.187Z,12.90
2022-09-21T08:10:02.549Z,12.92
2022-09-21T08:12:29.911Z,12.68
2022-09-21T08:14:57.269Z,12.82
2022-09-21T08:17:24.873Z,13.04
2022-09-21T08:19:52.211Z,12.76
2022-09-21T08:22:24.602Z,12.87
2022-09-21T08:24:52.455Z,13.08
2022-09-21T08:27:20.696Z,12.68
2022-09-21T08:29:48.331Z,13.05
2022-09-21T08:32:33.037Z,13.13
2022-09-21T08:35:03.117Z,13.46
2022-09-21T08:37:33.271Z,13.78
2022-09-21T08:40:02.536Z,13.50
2022-09-21T08:42:44.044Z,13.75
2022-09-21T08:45:17.768Z,13.72
2022-09-21T08:47:46.742Z,13.98
2022-09-21T08:50:27.665Z,14.00
2022-09-21T08:53:02.483Z,14.21
2022-09-21T08:55:29.884Z,14.08
2022-09-21T08:57:57.316Z,13.81
2022-09-21T09:00:25.015Z,14.04
2022-09-21T09:03:14.900Z,14.46
2022-09-21T09:05:48.904Z,14.70
2022-09-21T09:08:31.819Z,14.86
2022-09-21T09:11:11.032Z,14.49
2022-09-21T09:14:00.676Z,13.92
2022-09-21T09:16:33.397Z,14.01
2022-09-21T09:19:06.776Z,13.74
2022-09-21T09:21:38.721Z,13.89
2022-09-21T09:24:12.401Z,14.54
2022-09-21T09:26:45.286Z,15.08
2022-09-21T09:29:21.702Z,15.37
2022-09-21T09:31:50.870Z,14.99
2022-09-21T09:34:25.136Z,14.93
2022-09-21T09:36:59.647Z,14.96
2022-09-21T09:39:30.109Z,15.08
2022-09-21T09:42:07.139Z,14.85
2022-09-21T09:44:55.421Z,14.45
2022-09-21T09:47:33.992Z,14.68
2022-09-21T09:50:07.439Z,14.77
2022-09-21T09:52:34.980Z,14.66
2022-09-21T09:55:16.795Z,14.54
2022-09-21T09:57:44.543Z,14.72
2022-09-21T10:00:15.081Z,15.05
2022-09-21T10:02:48.170Z,15.05
2022-09-21T10:05:22.441Z,15.09
2022-09-21T10:07:49.674Z,14.58
2022-09-21T10:10:33.112Z,14.49
2022-09-21T10:13:10.522Z,15.01
2022-09-21T10:15:44.596Z,15.77
2022-09-21T10:18:21.680Z,15.90
2022-09-21T10:20:57.407Z,15.96
2022-09-21T10:23:25.710Z,16.33
2022-09-21T10:26:08.657Z,16.75
2022-09-21T10:28:36.284Z,16.31
2022-09-21T10:31:13.322Z,16.00
2022-09-21T10:33:49.147Z,16.14
2022-09-21T10:36:30.774Z,15.65
2022-09-21T10:39:25.291Z,15.81
2022-09-21T10:41:57.818Z,15.64
2022-09-21T10:44:28.716Z,15.62
2022-09-21T10:46:57.642Z,15.50
2022-09-21T10:49:28.039Z,15.25
2022-09-21T10:51:58.018Z,15.36
2022-09-21T10:54:28.806Z,15.35
2022-09-21T10:57:02.136Z,15.17
2022-09-21T10:59:32.039Z,15.43
2022-09-21T11:02:00.924Z,15.17
2022-09-21T11:04:35.308Z,15.05
2022-09-21T11:07:10.048Z,15.23
2022-09-21T11:09:42.760Z,15.92
2022-09-21T11:12:26.897Z,16.27
2022-09-21T11:15:01.786Z,16.11
2022-09-21T11:17:37.430Z,15.78
2022-09-21T11:20:16.732Z,15.43
2022-09-21T11:22:57.394Z,15.42
2022-09-21T11:25:36.569Z,15.29
2022-09-21T11:28:14.481Z,15.26
2022-09-21T11:31:07.091Z,15.40
2022-09-21T11:33:49.472Z,15.99
2022-09-21T11:36:23.381Z,16.33
2022-09-21T11:38:59.291Z,16.15
2022-09-21T11:41:51.123Z,15.84
2022-09-21T11:44:36.310Z,15.52
2022-09-21T11:47:17.526Z,16.05
2022-09-21T11:50:07.767Z,16.79
2022-09-21T11:52:55.828Z,17.28
2022-09-21T11:55:44.430Z,17.38
2022-09-21T11:58:21.818Z,17.15
2022-09-21T12:00:59.548Z,17.07
2022-09-21T12:03:38.954Z,16.62
2022-09-21T12:06:21.327Z,16.43
2022-09-21T12:09:01.564Z,16.55
2022-09-21T12:11:36.784Z,16.48
2022-09-21T12:14:15.210Z,16.55
2022-09-21T12:16:52.337Z,16.45
2022-09-21T12:19:27.741Z,16.21
2022-09-21T12:21:59.666Z,16.18
2022-09-21T12:24:32.505Z,16.29
2022-09-21T12:27:04.893Z,16.53
2022-09-21T12:29:39.142Z,16.73
2022-09-21T12:32:11.923Z,16.78
2022-09-21T12:34:43.294Z,16.79
2022-09-21T12:37:16.106Z,16.84
2022-09-21T12:39:48.026Z,16.88
2022-09-21T12:42:28.164Z,16.76
2022-09-21T12:45:00.639Z,17.03
2022-09-21T12:47:42.279Z,17.16
2022-09-21T12:50:20.451Z,16.96
2022-09-21T12:52:49.398Z,16.74
2022-09-21T12:55:33.045Z,16.76
2022-09-21T12:58:16.889Z,16.54
2022-09-21T13:00:52.665Z,16.59
2022-09-21T13:03:28.610Z,16.70
2022-09-21T13:06:13.304Z,16.86
2022-09-21T13:08:44.900Z,16.92
2022-09-21T13:11:12.579Z,17.20
2022-09-21T13:13:50.047Z,17.51
2022-09-21T13:16:25.666Z,17.36
2022-09-21T13:18:59.123Z,17.44
2022-09-21T13:21:31.706Z,17.36
2022-09-21T13:24:01.313Z,17.15
2022-09-21T13:26:38.142Z,16.89
2022-09-21T13:29:31.381Z,16.83
2022-09-21T13:32:00.968Z,16.88
2022-09-21T13:34:32.731Z,17.02
2022-09-21T13:37:32.566Z,16.77
2022-09-21T13:40:42.215Z,16.49
2022-09-21T13:43:25.000Z,16.16
2022-09-21T13:45:58.072Z,16.28
2022-09-21T13:48:30.234Z,16.10
2022-09-21T13:51:02.788Z,16.38
2022-09-21T13:53:35.920Z,16.65
2022-09-21T13:56:09.727Z,16.68
2022-09-21T13:58:43.831Z,17.07
2022-09-21T14:01:45.151Z,17.11
2022-09-21T14:04:21.519Z,17.29
2022-09-21T14:06:52.290Z,17.40
2022-09-21T14:09:25.577Z,17.06
2022-09-21T14:11:58.754Z,16.85
2022-09-21T14:14:31.051Z,16.63
2022-09-21T14:17:00.023Z,16.63
2022-09-21T14:20:03.943Z,16.32
2022-09-21T14:22:41.742Z,16.20
2022-09-21T14:25:26.725Z,16.11
2022-09-21T14:27:59.210Z,16.21
2022-09-21T14:30:28.983Z,15.84
2022-09-21T14:33:16.676Z,15.47
2022-09-21T14:35:47.308Z,15.43
2022-09-21T14:38:21.589Z,15.53
2022-09-21T14:40:50.283Z,15.50
2022-09-21T14:43:23.675Z,15.16
2022-09-21T14:46:17.650Z,14.55
2022-09-21T14:48:57.022Z,14.25
2022-09-21T14:51:36.050Z,14.23
2022-09-21T14:54:20.963Z,14.27
2022-09-21T14:57:00.460Z,14.43
2022-09-21T14:59:48.644Z,14.17
2022-09-21T15:02:22.004Z,14.36
2022-09-21T15:05:01.698Z,14.21
2022-09-21T15:07:57.041Z,14.20
2022-09-21T15:10:51.842Z,14.12
2022-09-21T15:13:38.247Z,14.27
2022-09-21T15:16:23.371Z,14.36
2022-09-21T15:18:52.303Z,14.27
2022-09-21T15:21:24.129Z,14.28
2022-09-21T15:23:53.071Z,14.27
2022-09-21T15:26:26.568Z,14.35
2022-09-21T15:29:11.510Z,14.28
2022-09-21T15:31:41.156Z,14.17
2022-09-21T15:34:10.731Z,14.14
2022-09-21T15:36:40.450Z,14.16
2022-09-21T15:39:09.337Z,14.29
2022-09-21T15:41:44.797Z,14.46
2022-09-21T15:44:16.832Z,14.49
2022-09-21T15:46:48.048Z,14.48
2022-09-21T15:49:17.827Z,14.41
2022-09-21T15:51:46.020Z,14.28
2022-09-21T15:54:30.463Z,14.26
2022-09-21T15:56:59.703Z,14.20
2022-09-21T15:59:29.435Z,14.31
2022-09-21T16:02:00.791Z,14.19
2022-09-21T16:04:29.855Z,14.20
2022-09-21T16:07:04.081Z,14.17
2022-09-21T16:09:39.325Z,13.94
2022-09-21T16:12:42.207Z,13.80
2022-09-21T16:15:17.928Z,13.71
2022-09-21T16:17:57.852Z,13.71
2022-09-21T16:20:26.694Z,13.20
2022-09-21T16:23:04.607Z,12.99
2022-09-21T16:25:36.963Z,12.80
2022-09-21T16:28:12.692Z,12.77
2022-09-21T16:30:51.016Z,13.02
2022-09-21T16:33:58.119Z,12.97
2022-09-21T16:36:45.292Z,13.06
2022-09-21T16:39:15.735Z,13.04
2022-09-21T16:41:53.161Z,13.01
2022-09-21T16:44:25.520Z,13.01
2022-09-21T16:46:56.225Z,12.97
2022-09-21T16:49:30.238Z,12.91
2022-09-21T16:51:59.307Z,12.97
2022-09-21T16:54:27.533Z,12.83
2022-09-21T16:56:57.295Z,12.67
2022-09-21T16:59:26.894Z,12.66
2022-09-21T17:01:56.718Z,12.50
2022-09-21T17:04:26.241Z,12.44
2022-09-21T17:06:54.870Z,12.51
2022-09-21T17:09:29.180Z,12.44
2022-09-21T17:11:57.736Z,12.26
2022-09-21T17:14:26.447Z,12.20
2022-09-21T17:16:57.255Z,12.22
2022-09-21T17:19:25.117Z,12.26
2022-09-21T17:21:52.631Z,11.96
2022-09-21T17:24:45.909Z,11.83
2022-09-21T17:27:07.335Z,11.83
2022-09-21T17:29:37.047Z,11.69
2022-09-21T17:32:06.789Z,11.64
2022-09-21T17:34:34.850Z,11.74
2022-09-21T17:37:02.177Z,11.66
2022-09-21T17:39:29.551Z,11.58
2022-09-21T17:42:02.312Z,11.48
2022-09-21T17:44:45.407Z,11.34
2022-09-21T17:47:20.001Z,11.34
2022-09-21T17:49:48.179Z,11.34
2022-09-21T17:52:35.336Z,11.17
2022-09-21T17:55:06.017Z,11.20
2022-09-21T17:57:47.838Z,11.05
2022-09-21T18:00:20.606Z,11.13
2022-09-21T18:02:49.597Z,11.14
2022-09-21T18:05:23.211Z,11.09
2022-09-21T18:07:51.932Z,11.04
2022-09-21T18:10:20.238Z,11.11
2022-09-21T18:13:03.875Z,11.16
2022-09-21T18:15:41.326Z,11.07
2022-09-21T18:18:18.242Z,10.91
2022-09-21T18:20:57.649Z,10.81
2022-09-21T18:23:33.758Z,10.72
2022-09-21T18:26:01.734Z,10.78
2022-09-21T18:28:40.381Z,10.74
2022-09-21T18:31:24.217Z,10.70
2022-09-21T18:33:57.647Z,10.70
2022-09-21T18:36:31.507Z,10.76
2022-09-21T18:39:13.692Z,10.68
2022-09-21T18:41:50.666Z,10.61
2022-09-21T18:44:25.097Z,10.34
2022-09-21T18:47:05.630Z,10.40
2022-09-21T18:49:46.265Z,10.45
2022-09-21T18:52:24.628Z,10.43
2022-09-21T18:54:53.022Z,10.49
2022-09-21T18:57:22.953Z,10.35
2022-09-21T18:59:51.114Z,10.27
2022-09-21T19:02:20.914Z,10.30
2022-09-21T19:04:49.646Z,10.24
2022-09-21T19:07:27.535Z,10.39
2022-09-21T19:10:05.254Z,10.27
2022-09-21T19:12:49.026Z,10.13
2022-09-21T19:15:42.084Z,10.18
2022-09-21T19:18:19.951Z,10.17
2022-09-21T19:20:58.506Z,10.18
2022-09-21T19:23:38.212Z,10.09
2022-09-21T19:26:13.371Z,9.97
2022-09-21T19:29:00.997Z,10.11
2022-09-21T19:31:29.309Z,9.80
2022-09-21T19:33:58.336Z,9.78
2022-09-21T19:36:25.885Z,9.91
2022-09-21T19:38:54.082Z,9.68
2022-09-21T19:41:35.001Z,9.84
2022-09-21T19:44:15.192Z,9.73
2022-09-21T19:46:52.829Z,9.72
2022-09-21T19:49:24.504Z,9.91
2022-09-21T19:51:53.910Z,9.65
2022-09-21T19:54:40.970Z,9.71
2022-09-21T19:57:30.926Z,9.74
2022-09-21T19:59:58.788Z,9.59
2022-09-21T20:02:32.480Z,9.57
2022-09-21T20:05:06.902Z,9.40
2022-09-21T20:07:44.115Z,9.50
2022-09-21T20:10:31.566Z,9.63
2022-09-21T20:13:09.377Z,9.73
2022-09-21T20:15:42.329Z,9.67
2022-09-21T20:18:21.399Z,9.65
2022-09-21T20:20:50.399Z,9.75
2022-09-21T20:23:18.349Z,9.70
2022-09-21T20:25:52.979Z,9.76
2022-09-21T20:28:21.429Z,9.74
2022-09-21T20:30:50.053Z,9.76
2022-09-21T20:33:22.576Z,9.76
2022-09-21T20:35:55.274Z,9.74
2022-09-21T20:38:23.036Z,9.82
2022-09-21T20:40:51.381Z,9.72
2022-09-21T20:43:19.874Z,9.69
2022-09-21T20:45:50.175Z,9.74
2022-09-21T20:48:17.932Z,9.55
2022-09-21T20:50:47.671Z,9.67
2022-09-21T20:53:16.518Z,9.65
2022-09-21T20:55:52.774Z,9.58
2022-09-21T20:58:20.106Z,9.57
2022-09-21T21:00:47.490Z,9.72
2022-09-21T21:03:14.910Z,9.60
2022-09-21T21:05:42.388Z,9.47
2022-09-21T21:08:09.967Z,9.56
2022-09-21T21:10:38.730Z,9.45
2022-09-21T21:13:06.092Z,9.43
2022-09-21T21:15:33.466Z,9.52
2022-09-21T21:18:00.777Z,9.59
2022-09-21T21:20:28.966Z,9.57
2022-09-21T21:22:56.295Z,9.50
2022-09-21T21:25:23.631Z,9.49
2022-09-21T21:27:57.245Z,9.53
2022-09-21T21:30:25.370Z,9.70
2022-09-21T21:32:53.075Z,9.67
2022-09-21T21:35:20.407Z,9.73
2022-09-21T21:37:47.882Z,9.70
2022-09-21T21:40:15.681Z,9.67
2022-09-21T21:42:43.081Z,9.68
2022-09-21T21:45:11.995Z,9.63
2022-09-21T21:47:40.834Z,9.59
2022-09-21T21:50:09.881Z,9.68
2022-09-21T21:52:37.342Z,9.73
2022-09-21T21:55:05.517Z,9.72
2022-09-21T21:57:33.202Z,9.94
2022-09-21T22:00:00.593Z,10.00
2022-09-21T22:02:29.663Z,9.90
2022-09-21T22:04:57.035Z,9.95
2022-09-21T22:07:24.457Z,9.76
2022-09-21T22:09:51.819Z,9.74
2022-09-21T22:12:19.522Z,9.79
2022-09-21T22:14:47.636Z,9.78
2022-09-21T22:17:15.179Z,9.86
2022-09-21T22:19:43.928Z,9.87
2022-09-21T22:22:11.253Z,9.84
2022-09-21T22:24:38.599Z,9.80
2022-09-21T22:27:06.011Z,9.78
2022-09-21T22:29:33.361Z,9.78
2022-09-21T22:32:00.869Z,10.01
2022-09-21T22:34:28.261Z,9.79
2022-09-21T22:36:59.259Z,9.91
2022-09-21T22:39:26.631Z,9.89
2022-09-21T22:41:53.978Z,9.88
2022-09-21T22:44:21.364Z,9.93
2022-09-21T22:46:48.698Z,9.91
2022-09-21T22:49:16.023Z,9.86
2022-09-21T22:51:43.361Z,9.81
2022-09-21T22:54:12.033Z,9.78
2022-09-21T22:56:39.439Z,9.78
2022-09-21T22:59:07.171Z,9.83
2022-09-21T23:01:36.346Z,9.78
2022-09-21T23:04:07.749Z,9.81
2022-09-21T23:06:37.010Z,9.83
2022-09-21T23:09:07.575Z,9.83
2022-09-21T23:11:38.510Z,9.75
2022-09-21T23:14:06.542Z,9.74
2022-09-21T23:16:34.082Z,9.71
2022-09-21T23:19:01.621Z,9.75
2022-09-21T23:21:30.587Z,9.72
2022-09-21T23:23:59.787Z,9.97
2022-09-21T23:26:28.464Z,9.98
2022-09-21T23:28:58.427Z,9.92
2022-09-21T23:31:27.399Z,9.96
2022-09-21T23:33:57.821Z,9.99
2022-09-21T23:36:26.955Z,10.10
2022-09-21T23:38:55.464Z,9.79
2022-09-21T23:41:24.284Z,9.72
2022-09-21T23:43:52.473Z,9.81
2022-09-21T23:46:23.123Z,9.78
2022-09-21T23:48:51.157Z,9.71
2022-09-21T23:51:19.577Z,9.87
2022-09-21T23:53:47.314Z,9.86
2022-09-21T23:56:16.832Z,9.86
2022-09-21T23:58:44.246Z,9.90
